createdAt,value
2015-09-13T00:00:07.464Z,5.89
2015-09-13T00:00:19.886Z,5.85
2015-09-13T00:00:32.279Z,5.88
2015-09-13T00:00:44.685Z,5.85
2015-09-13T00:00:57.091Z,5.81
2015-09-13T00:01:09.482Z,5.85
2015-09-13T00:01:21.732Z,5.88
2015-09-13T00:01:34.140Z,5.91
2015-09-13T00:01:46.546Z,5.92
2015-09-13T00:01:58.968Z,5.88
2015-09-13T00:02:11.406Z,5.85
2015-09-13T00:02:23.827Z,5.85
2015-09-13T00:02:36.251Z,5.84
2015-09-13T00:02:48.704Z,5.88
2015-09-13T00:03:01.095Z,5.92
2015-09-13T00:03:13.486Z,5.84
2015-09-13T00:03:25.892Z,5.81
2015-09-13T00:03:38.285Z,5.87
2015-09-13T00:03:50.675Z,5.89
2015-09-13T00:04:03.066Z,5.88
2015-09-13T00:04:15.472Z,5.95
2015-09-13T00:04:27.878Z,5.89
2015-09-13T00:04:40.271Z,5.88
2015-09-13T00:04:52.677Z,5.85
2015-09-13T00:05:05.083Z,5.81
2015-09-13T00:05:17.490Z,5.84
2015-09-13T00:05:29.912Z,5.88
2015-09-13T00:05:42.320Z,5.8
2015-09-13T00:05:54.710Z,5.81
2015-09-13T00:06:07.101Z,5.81
2015-09-13T00:06:19.492Z,5.82
2015-09-13T00:06:31.884Z,5.87
2015-09-13T00:06:44.291Z,5.82
2015-09-13T00:06:56.681Z,5.82
2015-09-13T00:07:09.119Z,5.78
2015-09-13T00:07:21.509Z,5.87
2015-09-13T00:07:33.949Z,5.78
2015-09-13T00:07:46.371Z,5.78
2015-09-13T00:07:58.808Z,5.85
2015-09-13T00:08:11.246Z,5.81
2015-09-13T00:08:23.668Z,5.87
2015-09-13T00:08:36.107Z,5.84
2015-09-13T00:08:48.513Z,5.85
2015-09-13T00:09:00.920Z,5.87
2015-09-13T00:09:13.310Z,5.82
2015-09-13T00:09:25.701Z,5.87
2015-09-13T00:09:38.125Z,5.82
2015-09-13T00:09:50.531Z,5.85
2015-09-13T00:10:02.922Z,5.78
2015-09-13T00:10:15.312Z,5.84
2015-09-13T00:10:27.718Z,5.8
2015-09-13T00:10:40.127Z,5.89
2015-09-13T00:10:52.517Z,5.78
2015-09-13T00:11:04.970Z,5.81
2015-09-13T00:11:17.392Z,5.78
2015-09-13T00:11:29.814Z,5.82
2015-09-13T00:11:42.253Z,5.82
2015-09-13T00:11:54.675Z,5.84
2015-09-13T00:12:07.096Z,5.84
2015-09-13T00:12:18.784Z,5.84
2015-09-13T00:12:31.175Z,5.87
2015-09-13T00:12:43.567Z,5.85
2015-09-13T00:12:55.958Z,5.84
2015-09-13T00:13:08.364Z,5.82
2015-09-13T00:13:20.755Z,5.88
2015-09-13T00:13:33.161Z,5.87
2015-09-13T00:13:45.569Z,5.84
2015-09-13T00:13:57.991Z,5.87
2015-09-13T00:14:10.429Z,5.89
2015-09-13T00:14:22.835Z,5.89
2015-09-13T00:14:35.241Z,5.89
2015-09-13T00:14:47.635Z,5.82
2015-09-13T00:15:00.041Z,5.85
2015-09-13T00:15:12.432Z,5.89
2015-09-13T00:15:24.838Z,5.92
2015-09-13T00:15:37.260Z,5.88
2015-09-13T00:15:49.651Z,5.98
2015-09-13T00:16:02.073Z,6
2015-09-13T00:16:14.511Z,5.99
2015-09-13T00:16:26.933Z,5.96
2015-09-13T00:16:39.354Z,5.98
2015-09-13T00:16:51.794Z,5.96
2015-09-13T00:17:04.185Z,5.98
2015-09-13T00:17:16.575Z,5.95
2015-09-13T00:17:28.966Z,6.02
2015-09-13T00:17:41.372Z,6.05
2015-09-13T00:17:53.765Z,5.91
2015-09-13T00:18:06.171Z,5.92
2015-09-13T00:18:18.562Z,5.98
2015-09-13T00:18:30.952Z,5.98
2015-09-13T00:18:43.343Z,6.06
2015-09-13T00:18:55.752Z,6.02
2015-09-13T00:19:08.158Z,5.87
2015-09-13T00:19:20.580Z,5.89
2015-09-13T00:19:32.986Z,5.88
2015-09-13T00:19:45.424Z,5.99
2015-09-13T00:19:57.863Z,6
2015-09-13T00:20:10.317Z,5.96
2015-09-13T00:20:22.738Z,5.98
2015-09-13T00:20:35.129Z,6
2015-09-13T00:20:47.520Z,5.92
2015-09-13T00:20:59.911Z,6
2015-09-13T00:21:12.302Z,5.95
2015-09-13T00:21:23.989Z,5.96
2015-09-13T00:21:36.380Z,6.06
2015-09-13T00:21:48.786Z,6.02
2015-09-13T00:22:01.179Z,5.92
2015-09-13T00:22:13.585Z,5.91
2015-09-13T00:22:25.991Z,6
2015-09-13T00:22:38.382Z,6.05
2015-09-13T00:22:50.788Z,5.85
2015-09-13T00:23:03.212Z,6
2015-09-13T00:23:15.634Z,5.96
2015-09-13T00:23:28.072Z,5.98
2015-09-13T00:23:40.509Z,6.03
2015-09-13T00:23:52.931Z,5.92
2015-09-13T00:24:05.308Z,5.88
2015-09-13T00:24:16.995Z,5.91
2015-09-13T00:24:29.370Z,5.87
2015-09-13T00:24:41.761Z,6.02
2015-09-13T00:24:54.167Z,5.96
2015-09-13T00:25:06.560Z,6.02
2015-09-13T00:25:18.966Z,6.07
2015-09-13T00:25:31.357Z,6.05
2015-09-13T00:25:43.763Z,6.05
2015-09-13T00:25:56.169Z,6.05
2015-09-13T00:26:08.578Z,6.05
2015-09-13T00:26:20.984Z,6.03
2015-09-13T00:26:33.390Z,6.03
2015-09-13T00:26:45.828Z,5.96
2015-09-13T00:26:58.265Z,6.05
2015-09-13T00:27:10.705Z,6.09
2015-09-13T00:27:23.126Z,6.1
2015-09-13T00:27:35.517Z,6.07
2015-09-13T00:27:47.908Z,6.09
2015-09-13T00:28:00.316Z,6.05
2015-09-13T00:28:12.707Z,6.07
2015-09-13T00:28:25.097Z,6.05
2015-09-13T00:28:37.503Z,6.03
2015-09-13T00:28:49.910Z,6.05
2015-09-13T00:29:02.318Z,6.05
2015-09-13T00:29:14.740Z,6.1
2015-09-13T00:29:27.162Z,6.09
2015-09-13T00:29:39.724Z,6.06
2015-09-13T00:29:52.115Z,6.06
2015-09-13T00:30:04.507Z,6.06
2015-09-13T00:30:16.914Z,6.05
2015-09-13T00:30:29.320Z,6.13
2015-09-13T00:30:41.711Z,6.06
2015-09-13T00:30:53.945Z,6.02
2015-09-13T00:31:06.369Z,6
2015-09-13T00:31:18.775Z,6.1
2015-09-13T00:31:31.197Z,6.06
2015-09-13T00:31:43.619Z,6.07
2015-09-13T00:31:56.056Z,6.05
2015-09-13T00:32:08.496Z,6.05
2015-09-13T00:32:20.918Z,6.03
2015-09-13T00:32:33.355Z,6.02
2015-09-13T00:32:45.777Z,6
2015-09-13T00:32:58.168Z,6.05
2015-09-13T00:33:10.560Z,6.09
2015-09-13T00:33:22.967Z,6.05
2015-09-13T00:33:35.357Z,6.07
2015-09-13T00:33:47.748Z,6.02
2015-09-13T00:34:00.154Z,6.1
2015-09-13T00:34:12.531Z,6.13
2015-09-13T00:34:24.937Z,6.1
2015-09-13T00:34:37.344Z,6.07
2015-09-13T00:34:49.750Z,6.13
2015-09-13T00:35:02.172Z,6.09
2015-09-13T00:35:14.596Z,6.14
2015-09-13T00:35:27.017Z,6.15
2015-09-13T00:35:39.439Z,6.2
2015-09-13T00:35:51.721Z,6.17
2015-09-13T00:36:04.158Z,6.09
2015-09-13T00:36:16.551Z,6.07
2015-09-13T00:36:28.941Z,6.09
2015-09-13T00:36:41.348Z,6.06
2015-09-13T00:36:53.738Z,6.07
2015-09-13T00:37:06.129Z,6.07
2015-09-13T00:37:18.521Z,6.1
2015-09-13T00:37:30.928Z,6.06
2015-09-13T00:37:43.318Z,6.03
2015-09-13T00:37:55.725Z,6.07
2015-09-13T00:38:08.131Z,6.1
2015-09-13T00:38:20.539Z,6.13
2015-09-13T00:38:32.961Z,6.06
2015-09-13T00:38:45.398Z,6.09
2015-09-13T00:38:57.836Z,6.13
2015-09-13T00:39:10.227Z,6.09
2015-09-13T00:39:22.619Z,6.18
2015-09-13T00:39:35.010Z,6.15
2015-09-13T00:39:47.400Z,6.17
2015-09-13T00:39:59.807Z,6.18
2015-09-13T00:40:12.213Z,6.21
2015-09-13T00:40:24.637Z,6.14
2015-09-13T00:40:37.043Z,6.17
2015-09-13T00:40:49.465Z,6.15
2015-09-13T00:41:01.887Z,6.2
2015-09-13T00:41:14.324Z,6.18
2015-09-13T00:41:26.748Z,6.18
2015-09-13T00:41:39.186Z,6.1
2015-09-13T00:41:51.592Z,6.07
2015-09-13T00:42:03.826Z,6.14
2015-09-13T00:42:16.217Z,6.07
2015-09-13T00:42:28.625Z,6.05
2015-09-13T00:42:41.016Z,6.09
2015-09-13T00:42:53.422Z,6.03
2015-09-13T00:43:05.828Z,6.06
2015-09-13T00:43:18.094Z,6.06
2015-09-13T00:43:30.486Z,6.1
2015-09-13T00:43:42.907Z,6.09
2015-09-13T00:43:55.314Z,6.13
2015-09-13T00:44:07.720Z,6.03
2015-09-13T00:44:20.157Z,6.09
2015-09-13T00:44:32.566Z,6.03
2015-09-13T00:44:44.972Z,6.13
2015-09-13T00:44:57.363Z,6.09
2015-09-13T00:45:09.753Z,6.05
2015-09-13T00:45:22.144Z,6.09
2015-09-13T00:45:34.537Z,6.02
2015-09-13T00:45:46.944Z,6.07
2015-09-13T00:45:59.350Z,6.05
2015-09-13T00:46:11.756Z,6.02
2015-09-13T00:46:24.179Z,5.98
2015-09-13T00:46:36.617Z,5.99
2015-09-13T00:46:49.023Z,6.03
2015-09-13T00:47:01.460Z,5.92
2015-09-13T00:47:13.898Z,6.03
2015-09-13T00:47:26.307Z,5.91
2015-09-13T00:47:38.698Z,5.96
2015-09-13T00:47:51.104Z,5.92
2015-09-13T00:48:03.510Z,5.96
2015-09-13T00:48:15.901Z,5.96
2015-09-13T00:48:28.309Z,5.92
2015-09-13T00:48:40.700Z,5.87
2015-09-13T00:48:53.106Z,5.98
2015-09-13T00:49:05.497Z,5.87
2015-09-13T00:49:17.903Z,5.85
2015-09-13T00:49:30.326Z,5.87
2015-09-13T00:49:42.732Z,5.85
2015-09-13T00:49:55.154Z,5.88
2015-09-13T00:50:07.576Z,5.85
2015-09-13T00:50:19.998Z,5.92
2015-09-13T00:50:32.453Z,5.84
2015-09-13T00:50:44.843Z,5.84
2015-09-13T00:50:57.234Z,5.85
2015-09-13T00:51:09.640Z,5.85
2015-09-13T00:51:22.031Z,5.89
2015-09-13T00:51:34.423Z,5.87
2015-09-13T00:51:46.877Z,5.87
2015-09-13T00:51:59.298Z,5.89
2015-09-13T00:52:11.705Z,5.92
2015-09-13T00:52:24.111Z,5.91
2015-09-13T00:52:36.535Z,5.89
2015-09-13T00:52:48.972Z,5.89
2015-09-13T00:53:01.394Z,5.88
2015-09-13T00:53:13.847Z,5.96
2015-09-13T00:53:26.238Z,5.84
2015-09-13T00:53:38.631Z,5.92
2015-09-13T00:53:51.021Z,5.92
2015-09-13T00:54:03.412Z,5.88
2015-09-13T00:54:15.818Z,5.89
2015-09-13T00:54:28.209Z,5.95
2015-09-13T00:54:40.617Z,5.89
2015-09-13T00:54:53.008Z,5.84
2015-09-13T00:55:05.414Z,5.82
2015-09-13T00:55:17.820Z,5.89
2015-09-13T00:55:30.226Z,5.99
2015-09-13T00:55:42.650Z,5.91
2015-09-13T00:55:55.088Z,5.89
2015-09-13T00:56:07.525Z,5.96
2015-09-13T00:56:19.931Z,5.84
2015-09-13T00:56:32.322Z,5.92
2015-09-13T00:56:44.715Z,5.87
2015-09-13T00:56:57.121Z,5.85
2015-09-13T00:57:09.512Z,5.88
2015-09-13T00:57:21.902Z,5.87
2015-09-13T00:57:34.308Z,5.82
2015-09-13T00:57:46.717Z,5.88
2015-09-13T00:57:59.123Z,5.92
2015-09-13T00:58:11.529Z,5.89
2015-09-13T00:58:23.232Z,5.89
2015-09-13T00:58:35.639Z,5.95
2015-09-13T00:58:48.062Z,5.89
2015-09-13T00:59:00.484Z,5.88
2015-09-13T00:59:12.922Z,5.88
2015-09-13T00:59:25.375Z,5.89
2015-09-13T00:59:37.766Z,5.96
2015-09-13T00:59:50.158Z,5.89
2015-09-13T01:00:02.549Z,5.85
2015-09-13T01:00:14.955Z,5.87
2015-09-13T01:00:27.346Z,5.95
2015-09-13T01:00:39.752Z,5.87
2015-09-13T01:00:52.160Z,5.85
2015-09-13T01:01:03.848Z,5.87
2015-09-13T01:01:16.254Z,5.87
2015-09-13T01:01:28.676Z,5.88
2015-09-13T01:01:41.066Z,5.87
2015-09-13T01:01:53.475Z,5.88
2015-09-13T01:02:05.881Z,5.84
2015-09-13T01:02:18.287Z,5.95
2015-09-13T01:02:30.725Z,5.85
2015-09-13T01:02:43.131Z,5.99
2015-09-13T01:02:55.523Z,5.89
2015-09-13T01:03:07.913Z,5.87
2015-09-13T01:03:20.304Z,6
2015-09-13T01:03:32.694Z,5.87
2015-09-13T01:03:45.085Z,5.91
2015-09-13T01:03:57.494Z,5.88
2015-09-13T01:04:09.885Z,5.98
2015-09-13T01:04:22.276Z,5.88
2015-09-13T01:04:34.666Z,5.96
2015-09-13T01:04:47.073Z,5.95
2015-09-13T01:04:59.495Z,5.85
2015-09-13T01:05:11.902Z,5.84
2015-09-13T01:05:24.323Z,5.82
2015-09-13T01:05:36.745Z,5.88
2015-09-13T01:05:49.200Z,5.88
2015-09-13T01:06:01.638Z,5.87
2015-09-13T01:06:13.888Z,5.87
2015-09-13T01:06:26.279Z,5.91
2015-09-13T01:06:38.669Z,5.85
2015-09-13T01:06:51.062Z,5.84
2015-09-13T01:07:03.499Z,5.85
2015-09-13T01:07:15.890Z,5.84
2015-09-13T01:07:28.296Z,5.85
2015-09-13T01:07:40.687Z,5.88
2015-09-13T01:07:53.096Z,5.87
2015-09-13T01:08:05.502Z,5.84
2015-09-13T01:08:17.893Z,5.89
2015-09-13T01:08:30.315Z,5.84
2015-09-13T01:08:42.752Z,5.89
2015-09-13T01:08:55.175Z,5.78
2015-09-13T01:09:07.566Z,5.81
2015-09-13T01:09:19.972Z,5.78
2015-09-13T01:09:32.363Z,5.82
2015-09-13T01:09:44.753Z,5.84
2015-09-13T01:09:57.147Z,5.81
2015-09-13T01:10:09.538Z,5.82
2015-09-13T01:10:21.944Z,5.75
2015-09-13T01:10:34.350Z,5.8
2015-09-13T01:10:46.772Z,5.81
2015-09-13T01:10:59.211Z,5.82
2015-09-13T01:11:11.649Z,5.8
2015-09-13T01:11:24.071Z,5.75
2015-09-13T01:11:36.508Z,5.72
2015-09-13T01:11:48.915Z,5.78
2015-09-13T01:12:01.307Z,5.78
2015-09-13T01:12:13.698Z,5.77
2015-09-13T01:12:26.104Z,5.75
2015-09-13T01:12:38.495Z,5.8
2015-09-13T01:12:50.885Z,5.77
2015-09-13T01:13:03.293Z,5.72
2015-09-13T01:13:15.683Z,5.81
2015-09-13T01:13:28.074Z,5.73
2015-09-13T01:13:40.480Z,5.81
2015-09-13T01:13:52.886Z,5.78
2015-09-13T01:14:05.295Z,5.78
2015-09-13T01:14:17.716Z,5.73
2015-09-13T01:14:30.170Z,5.77
2015-09-13T01:14:42.591Z,5.77
2015-09-13T01:14:55.029Z,5.73
2015-09-13T01:15:07.422Z,5.72
2015-09-13T01:15:19.812Z,5.75
2015-09-13T01:15:32.203Z,5.72
2015-09-13T01:15:44.609Z,5.8
2015-09-13T01:15:57.015Z,5.73
2015-09-13T01:16:09.408Z,5.85
2015-09-13T01:16:21.814Z,5.81
2015-09-13T01:16:34.205Z,5.82
2015-09-13T01:16:45.892Z,5.89
2015-09-13T01:16:58.314Z,5.82
2015-09-13T01:17:10.722Z,5.88
2015-09-13T01:17:23.129Z,5.85
2015-09-13T01:17:35.535Z,5.85
2015-09-13T01:17:47.957Z,5.84
2015-09-13T01:18:00.379Z,5.95
2015-09-13T01:18:12.849Z,5.87
2015-09-13T01:18:24.568Z,5.88
2015-09-13T01:18:36.990Z,5.89
2015-09-13T01:18:49.381Z,5.89
2015-09-13T01:19:01.771Z,5.87
2015-09-13T01:19:14.180Z,5.87
2015-09-13T01:19:26.570Z,5.87
2015-09-13T01:19:38.961Z,5.91
2015-09-13T01:19:51.367Z,5.91
2015-09-13T01:20:03.789Z,5.88
2015-09-13T01:20:16.197Z,5.89
2015-09-13T01:20:28.603Z,5.84
2015-09-13T01:20:40.291Z,5.89
2015-09-13T01:20:52.713Z,5.85
2015-09-13T01:21:05.150Z,5.84
2015-09-13T01:21:17.574Z,5.85
2015-09-13T01:21:30.012Z,5.91
2015-09-13T01:21:42.449Z,5.84
2015-09-13T01:21:54.855Z,5.87
2015-09-13T01:22:07.246Z,5.85
2015-09-13T01:22:19.639Z,5.8
2015-09-13T01:22:32.045Z,5.84
2015-09-13T01:22:44.436Z,5.82
2015-09-13T01:22:56.826Z,5.8
2015-09-13T01:23:09.219Z,5.89
2015-09-13T01:23:21.625Z,5.89
2015-09-13T01:23:33.313Z,5.82
2015-09-13T01:23:45.719Z,5.82
2015-09-13T01:23:58.125Z,5.85
2015-09-13T01:24:10.565Z,5.84
2015-09-13T01:24:23.018Z,5.88
2015-09-13T01:24:35.440Z,5.87
2015-09-13T01:24:47.861Z,5.87
2015-09-13T01:25:00.283Z,5.85
2015-09-13T01:25:12.707Z,5.87
2015-09-13T01:25:25.098Z,5.87
2015-09-13T01:25:37.504Z,5.87
2015-09-13T01:25:49.910Z,5.88
2015-09-13T01:26:02.301Z,5.84
2015-09-13T01:26:13.975Z,5.84
2015-09-13T01:26:26.397Z,5.85
2015-09-13T01:26:38.772Z,5.87
2015-09-13T01:26:51.178Z,5.84
2015-09-13T01:27:03.569Z,5.91
2015-09-13T01:27:15.992Z,5.88
2015-09-13T01:27:28.399Z,5.82
2015-09-13T01:27:40.821Z,5.84
2015-09-13T01:27:53.274Z,5.81
2015-09-13T01:28:05.711Z,5.82
2015-09-13T01:28:18.166Z,5.85
2015-09-13T01:28:30.588Z,5.8
2015-09-13T01:28:43.026Z,5.85
2015-09-13T01:28:55.416Z,5.87
2015-09-13T01:29:07.807Z,5.87
2015-09-13T01:29:20.200Z,5.81
2015-09-13T01:29:32.590Z,5.78
2015-09-13T01:29:44.981Z,5.87
2015-09-13T01:29:57.403Z,5.84
2015-09-13T01:30:09.809Z,5.75
2015-09-13T01:30:22.216Z,5.78
2015-09-13T01:30:34.669Z,5.75
2015-09-13T01:30:47.091Z,5.77
2015-09-13T01:30:59.529Z,5.75
2015-09-13T01:31:11.919Z,5.77
2015-09-13T01:31:24.313Z,5.78
2015-09-13T01:31:36.719Z,5.75
2015-09-13T01:31:49.110Z,5.77
2015-09-13T01:32:01.516Z,5.69
2015-09-13T01:32:13.907Z,5.75
2015-09-13T01:32:26.315Z,5.77
2015-09-13T01:32:38.018Z,5.73
2015-09-13T01:32:50.424Z,5.72
2015-09-13T01:33:02.877Z,5.7
2015-09-13T01:33:15.299Z,5.72
2015-09-13T01:33:27.753Z,5.72
2015-09-13T01:33:40.144Z,5.7
2015-09-13T01:33:52.535Z,5.69
2015-09-13T01:34:04.925Z,5.72
2015-09-13T01:34:17.316Z,5.67
2015-09-13T01:34:29.724Z,5.69
2015-09-13T01:34:42.115Z,5.62
2015-09-13T01:34:54.521Z,5.66
2015-09-13T01:35:06.927Z,5.69
2015-09-13T01:35:19.318Z,5.62
2015-09-13T01:35:31.726Z,5.64
2015-09-13T01:35:44.132Z,5.69
2015-09-13T01:35:56.539Z,5.7
2015-09-13T01:36:08.961Z,5.66
2015-09-13T01:36:21.382Z,5.63
2015-09-13T01:36:33.807Z,5.66
2015-09-13T01:36:46.260Z,5.63
2015-09-13T01:36:58.651Z,5.67
2015-09-13T01:37:11.042Z,5.64
2015-09-13T01:37:23.432Z,5.62
2015-09-13T01:37:35.840Z,5.57
2015-09-13T01:37:48.230Z,5.64
2015-09-13T01:38:00.636Z,5.6
2015-09-13T01:38:13.027Z,5.62
2015-09-13T01:38:25.418Z,5.59
2015-09-13T01:38:37.826Z,5.6
2015-09-13T01:38:50.232Z,5.57
2015-09-13T01:39:02.638Z,5.6
2015-09-13T01:39:15.060Z,5.59
2015-09-13T01:39:27.469Z,5.64
2015-09-13T01:39:39.890Z,5.6
2015-09-13T01:39:52.187Z,5.54
2015-09-13T01:40:04.578Z,5.55
2015-09-13T01:40:16.969Z,5.63
2015-09-13T01:40:29.361Z,5.55
2015-09-13T01:40:41.752Z,5.51
2015-09-13T01:40:54.142Z,5.63
2015-09-13T01:41:06.517Z,5.6
2015-09-13T01:41:18.908Z,5.55
2015-09-13T01:41:31.301Z,5.6
2015-09-13T01:41:43.691Z,5.6
2015-09-13T01:41:56.082Z,5.64
2015-09-13T01:42:08.488Z,5.64
2015-09-13T01:42:20.894Z,5.6
2015-09-13T01:42:33.318Z,5.57
2015-09-13T01:42:45.756Z,5.64
2015-09-13T01:42:58.193Z,5.57
2015-09-13T01:43:10.584Z,5.6
2015-09-13T01:43:23.037Z,5.6
2015-09-13T01:43:35.414Z,5.64
2015-09-13T01:43:47.805Z,5.55
2015-09-13T01:44:00.211Z,5.63
2015-09-13T01:44:12.602Z,5.62
2015-09-13T01:44:25.008Z,5.62
2015-09-13T01:44:37.400Z,5.63
2015-09-13T01:44:49.791Z,5.64
2015-09-13T01:45:02.197Z,5.64
2015-09-13T01:45:14.619Z,5.62
2015-09-13T01:45:27.025Z,5.64
2015-09-13T01:45:39.449Z,5.66
2015-09-13T01:45:51.887Z,5.69
2015-09-13T01:46:04.324Z,5.69
2015-09-13T01:46:16.762Z,5.64
2015-09-13T01:46:29.152Z,5.67
2015-09-13T01:46:41.545Z,5.73
2015-09-13T01:46:53.951Z,5.67
2015-09-13T01:47:06.342Z,5.69
2015-09-13T01:47:18.733Z,5.67
2015-09-13T01:47:31.170Z,5.73
2015-09-13T01:47:43.563Z,5.67
2015-09-13T01:47:55.953Z,5.69
2015-09-13T01:48:08.360Z,5.75
2015-09-13T01:48:20.766Z,5.81
2015-09-13T01:48:33.172Z,5.73
2015-09-13T01:48:45.596Z,5.73
2015-09-13T01:48:58.018Z,5.8
2015-09-13T01:49:10.455Z,5.8
2015-09-13T01:49:22.846Z,5.78
2015-09-13T01:49:35.252Z,5.78
2015-09-13T01:49:47.645Z,5.78
2015-09-13T01:50:00.035Z,5.77
2015-09-13T01:50:12.426Z,5.78
2015-09-13T01:50:24.832Z,5.8
2015-09-13T01:50:37.067Z,5.75
2015-09-13T01:50:49.334Z,5.78
2015-09-13T01:51:01.866Z,5.73
2015-09-13T01:51:14.381Z,5.75
2015-09-13T01:51:26.194Z,5.69
2015-09-13T01:51:38.616Z,5.72
2015-09-13T01:51:51.039Z,5.75
2015-09-13T01:52:03.461Z,5.75
2015-09-13T01:52:15.883Z,5.67
2015-09-13T01:52:28.336Z,5.72
2015-09-13T01:52:40.758Z,5.67
2015-09-13T01:52:53.182Z,5.64
2015-09-13T01:53:05.588Z,5.75
2015-09-13T01:53:17.979Z,5.8
2015-09-13T01:53:30.385Z,5.69
2015-09-13T01:53:42.776Z,5.72
2015-09-13T01:53:55.184Z,5.75
2015-09-13T01:54:07.575Z,5.72
2015-09-13T01:54:19.965Z,5.78
2015-09-13T01:54:31.731Z,5.72
2015-09-13T01:54:44.137Z,5.7
2015-09-13T01:54:56.545Z,5.66
2015-09-13T01:55:08.952Z,5.64
2015-09-13T01:55:21.374Z,5.69
2015-09-13T01:55:33.795Z,5.67
2015-09-13T01:55:46.217Z,5.78
2015-09-13T01:55:58.656Z,5.72
2015-09-13T01:56:11.078Z,5.64
2015-09-13T01:56:23.484Z,5.66
2015-09-13T01:56:35.875Z,5.67
2015-09-13T01:56:48.281Z,5.7
2015-09-13T01:57:00.673Z,5.7
2015-09-13T01:57:13.064Z,5.77
2015-09-13T01:57:25.455Z,5.66
2015-09-13T01:57:37.861Z,5.69
2015-09-13T01:57:50.267Z,5.69
2015-09-13T01:58:02.660Z,5.7
2015-09-13T01:58:15.066Z,5.75
2015-09-13T01:58:27.488Z,5.69
2015-09-13T01:58:39.894Z,5.64
2015-09-13T01:58:52.316Z,5.72
2015-09-13T01:59:04.757Z,5.66
2015-09-13T01:59:17.178Z,5.66
2015-09-13T01:59:29.632Z,5.67
2015-09-13T01:59:42.069Z,5.7
2015-09-13T01:59:54.460Z,5.7
2015-09-13T02:00:06.149Z,5.66
2015-09-13T02:00:18.540Z,5.77
2015-09-13T02:00:30.946Z,5.75
2015-09-13T02:00:43.337Z,5.73
2015-09-13T02:00:55.727Z,5.78
2015-09-13T02:01:08.010Z,5.73
2015-09-13T02:01:20.416Z,5.7
2015-09-13T02:01:32.806Z,5.78
2015-09-13T02:01:45.260Z,5.64
2015-09-13T02:01:57.713Z,5.77
2015-09-13T02:02:10.138Z,5.73
2015-09-13T02:02:22.544Z,5.72
2015-09-13T02:02:34.934Z,5.78
2015-09-13T02:02:47.325Z,5.73
2015-09-13T02:02:59.716Z,5.69
2015-09-13T02:03:12.123Z,5.69
2015-09-13T02:03:24.514Z,5.63
2015-09-13T02:03:36.920Z,5.73
2015-09-13T02:03:49.310Z,5.66
2015-09-13T02:04:01.704Z,5.69
2015-09-13T02:04:14.110Z,5.7
2015-09-13T02:04:26.517Z,5.69
2015-09-13T02:04:38.954Z,5.78
2015-09-13T02:04:51.392Z,5.75
2015-09-13T02:05:03.815Z,5.69
2015-09-13T02:05:16.253Z,5.73
2015-09-13T02:05:28.659Z,5.77
2015-09-13T02:05:41.050Z,5.75
2015-09-13T02:05:53.456Z,5.77
2015-09-13T02:06:05.863Z,5.69
2015-09-13T02:06:18.254Z,5.8
2015-09-13T02:06:30.645Z,5.77
2015-09-13T02:06:43.051Z,5.77
2015-09-13T02:06:55.457Z,5.82
2015-09-13T02:07:07.850Z,5.82
2015-09-13T02:07:20.256Z,5.81
2015-09-13T02:07:32.662Z,5.81
2015-09-13T02:07:45.084Z,5.82
2015-09-13T02:07:57.522Z,5.78
2015-09-13T02:08:09.946Z,5.84
2015-09-13T02:08:22.384Z,5.87
2015-09-13T02:08:34.821Z,5.85
2015-09-13T02:08:47.243Z,5.84
2015-09-13T02:08:59.634Z,5.84
2015-09-13T02:09:12.026Z,5.88
2015-09-13T02:09:24.416Z,5.87
2015-09-13T02:09:36.822Z,5.87
2015-09-13T02:09:49.213Z,5.85
2015-09-13T02:10:01.604Z,5.85
2015-09-13T02:10:14.013Z,5.87
2015-09-13T02:10:26.404Z,5.92
2015-09-13T02:10:38.091Z,5.89
2015-09-13T02:10:50.497Z,5.89
2015-09-13T02:11:02.904Z,5.91
2015-09-13T02:11:15.311Z,5.89
2015-09-13T02:11:27.748Z,5.89
2015-09-13T02:11:40.170Z,5.85
2015-09-13T02:11:52.592Z,5.82
2015-09-13T02:12:04.983Z,5.89
2015-09-13T02:12:17.391Z,5.91
2015-09-13T02:12:29.782Z,5.84
2015-09-13T02:12:42.188Z,5.85
2015-09-13T02:12:54.578Z,5.84
2015-09-13T02:13:06.985Z,5.84
2015-09-13T02:13:19.393Z,5.84
2015-09-13T02:13:31.815Z,5.8
2015-09-13T02:13:44.237Z,5.88
2015-09-13T02:13:56.674Z,5.88
2015-09-13T02:14:09.096Z,5.84
2015-09-13T02:14:21.536Z,5.84
2015-09-13T02:14:33.957Z,5.91
2015-09-13T02:14:46.348Z,5.85
2015-09-13T02:14:58.739Z,5.87
2015-09-13T02:15:11.145Z,5.82
2015-09-13T02:15:23.553Z,5.89
2015-09-13T02:15:35.944Z,5.87
2015-09-13T02:15:48.350Z,5.87
2015-09-13T02:16:00.741Z,5.82
2015-09-13T02:16:13.165Z,5.8
2015-09-13T02:16:25.555Z,5.81
2015-09-13T02:16:37.961Z,5.82
2015-09-13T02:16:50.399Z,5.85
2015-09-13T02:17:02.821Z,5.84
2015-09-13T02:17:15.213Z,5.85
2015-09-13T02:17:27.604Z,5.84
2015-09-13T02:17:39.995Z,5.87
2015-09-13T02:17:52.401Z,5.82
2015-09-13T02:18:04.792Z,5.88
2015-09-13T02:18:17.200Z,5.81
2015-09-13T02:18:29.606Z,5.8
2015-09-13T02:18:42.012Z,5.81
2015-09-13T02:18:54.419Z,5.87
2015-09-13T02:19:06.887Z,5.89
2015-09-13T02:19:19.311Z,5.87
2015-09-13T02:19:31.733Z,5.84
2015-09-13T02:19:44.124Z,5.82
2015-09-13T02:19:56.530Z,5.84
2015-09-13T02:20:08.921Z,5.8
2015-09-13T02:20:21.329Z,5.78
2015-09-13T02:20:33.719Z,5.84
2015-09-13T02:20:46.126Z,5.67
2015-09-13T02:20:58.532Z,5.78
2015-09-13T02:21:10.938Z,5.77
2015-09-13T02:21:23.377Z,5.77
2015-09-13T02:21:35.799Z,5.73
2015-09-13T02:21:48.220Z,5.8
2015-09-13T02:22:00.642Z,5.78
2015-09-13T02:22:13.064Z,5.81
2015-09-13T02:22:25.457Z,5.84
2015-09-13T02:22:37.847Z,5.81
2015-09-13T02:22:50.238Z,5.78
2015-09-13T02:23:02.613Z,5.87
2015-09-13T02:23:15.004Z,5.85
2015-09-13T02:23:27.382Z,5.85
2015-09-13T02:23:39.772Z,5.88
2015-09-13T02:23:52.022Z,5.84
2015-09-13T02:24:03.007Z,5.88
2015-09-13T02:24:15.413Z,5.82
2015-09-13T02:24:27.852Z,5.88
2015-09-13T02:24:40.259Z,5.88
2015-09-13T02:24:52.681Z,5.91
2015-09-13T02:25:05.118Z,5.89
2015-09-13T02:25:17.571Z,5.84
2015-09-13T02:25:29.963Z,5.84
2015-09-13T02:25:42.369Z,5.87
2015-09-13T02:25:54.760Z,5.88
2015-09-13T02:26:07.166Z,5.84
2015-09-13T02:26:19.557Z,5.85
2015-09-13T02:26:31.949Z,5.85
2015-09-13T02:26:44.340Z,5.78
2015-09-13T02:26:56.590Z,5.85
2015-09-13T02:27:08.996Z,5.87
2015-09-13T02:27:21.402Z,5.84
2015-09-13T02:27:33.812Z,5.85
2015-09-13T02:27:46.233Z,5.87
2015-09-13T02:27:58.655Z,5.89
2015-09-13T02:28:11.077Z,5.81
2015-09-13T02:28:23.515Z,5.8
2015-09-13T02:28:35.939Z,5.87
2015-09-13T02:28:48.360Z,5.82
2015-09-13T02:29:00.751Z,5.85
2015-09-13T02:29:13.142Z,5.85
2015-09-13T02:29:24.829Z,5.82
2015-09-13T02:29:37.221Z,5.72
2015-09-13T02:29:49.627Z,5.85
2015-09-13T02:30:02.033Z,5.81
2015-09-13T02:30:14.424Z,5.84
2015-09-13T02:30:26.815Z,5.84
2015-09-13T02:30:39.207Z,5.77
2015-09-13T02:30:51.629Z,5.84
2015-09-13T02:31:04.035Z,5.8
2015-09-13T02:31:16.442Z,5.78
2015-09-13T02:31:28.863Z,5.78
2015-09-13T02:31:41.287Z,5.75
2015-09-13T02:31:53.553Z,5.77
2015-09-13T02:32:05.975Z,5.78
2015-09-13T02:32:18.412Z,5.73
2015-09-13T02:32:30.803Z,5.75
2015-09-13T02:32:43.212Z,5.73
2015-09-13T02:32:55.618Z,5.7
2015-09-13T02:33:08.009Z,5.78
2015-09-13T02:33:20.431Z,5.67
2015-09-13T02:33:32.837Z,5.75
2015-09-13T02:33:45.229Z,5.72
2015-09-13T02:33:57.635Z,5.75
2015-09-13T02:34:10.026Z,5.81
2015-09-13T02:34:22.432Z,5.85
2015-09-13T02:34:34.838Z,5.82
2015-09-13T02:34:47.278Z,5.81
2015-09-13T02:34:59.731Z,5.87
2015-09-13T02:35:11.996Z,5.84
2015-09-13T02:35:24.418Z,5.88
2015-09-13T02:35:36.858Z,5.88
2015-09-13T02:35:49.280Z,5.92
2015-09-13T02:36:01.686Z,5.87
2015-09-13T02:36:14.077Z,5.87
2015-09-13T02:36:26.467Z,5.91
2015-09-13T02:36:38.860Z,5.92
2015-09-13T02:36:51.266Z,5.87
2015-09-13T02:37:03.657Z,5.92
2015-09-13T02:37:16.063Z,5.85
2015-09-13T02:37:28.454Z,5.84
2015-09-13T02:37:40.846Z,5.92
2015-09-13T02:37:53.268Z,5.85
2015-09-13T02:38:05.674Z,5.99
2015-09-13T02:38:17.924Z,5.91
2015-09-13T02:38:30.362Z,5.91
2015-09-13T02:38:42.786Z,5.92
2015-09-13T02:38:55.239Z,5.89
2015-09-13T02:39:07.504Z,5.88
2015-09-13T02:39:19.895Z,5.88
2015-09-13T02:39:32.129Z,5.92
2015-09-13T02:39:44.522Z,5.89
2015-09-13T02:39:56.913Z,5.95
2015-09-13T02:40:09.319Z,5.87
2015-09-13T02:40:21.710Z,6.02
2015-09-13T02:40:34.100Z,5.87
2015-09-13T02:40:46.493Z,5.95
2015-09-13T02:40:58.899Z,6.02
2015-09-13T02:41:11.290Z,5.96
2015-09-13T02:41:23.696Z,5.98
2015-09-13T02:41:36.102Z,5.92
2015-09-13T02:41:48.526Z,5.96
2015-09-13T02:42:00.964Z,5.99
2015-09-13T02:42:13.385Z,5.92
2015-09-13T02:42:25.776Z,5.98
2015-09-13T02:42:38.167Z,5.98
2015-09-13T02:42:50.575Z,5.99
2015-09-13T02:43:02.966Z,5.95
2015-09-13T02:43:15.356Z,6.03
2015-09-13T02:43:27.762Z,5.84
2015-09-13T02:43:40.184Z,5.92
2015-09-13T02:43:52.577Z,5.88
2015-09-13T02:44:05.014Z,5.95
2015-09-13T02:44:17.436Z,5.84
2015-09-13T02:44:29.858Z,5.95
2015-09-13T02:44:42.249Z,5.87
2015-09-13T02:44:54.657Z,5.92
2015-09-13T02:45:07.048Z,6
2015-09-13T02:45:19.454Z,5.92
2015-09-13T02:45:31.860Z,5.96